This is the latest recevied weather packets stored in our database for station/object JH7MHZ-13. If no packets are shown the sender has not sent any weather packets the latest 10 day(s).
| Time | Temp. | Humidity | Pressure | Rain* | Wind** | Luminosity | Snow |
|---|---|---|---|---|---|---|---|
| 1778144775 | 18.89° C | 55% | 989.4 hPa | 0 mm | - | - | - |
| 1778141299 | 20.56° C | 48% | 989.4 hPa | 0 mm | - | - | - |
| 1778137699 | 22.78° C | 47% | 989.2 hPa | 0 mm | - | - | - |
| 1778134099 | 23.33° C | 42% | 989.4 hPa | 0 mm | - | - | - |
| 1778130499 | 25° C | 42% | 989.6 hPa | 0 mm | - | - | - |
| 1778126898 | 25.56° C | 43% | 990 hPa | 0 mm | - | - | - |
| 1778123298 | 24.44° C | 43% | 990.4 hPa | 0 mm | - | - | - |
| 1778119696 | 25° C | 41% | 991.3 hPa | 0 mm | - | - | - |
| 1778116097 | 23.89° C | 42% | 991.5 hPa | 0 mm | - | - | - |
| 1778112495 | 22.78° C | 48% | 991.9 hPa | 0 mm | - | - | - |
| 1778108894 | 16.11° C | 70% | 993.3 hPa | 0 mm | - | - | - |
| 1778105294 | 13.33° C | 78% | 994 hPa | 0 mm | - | - | - |
| 1778101693 | 10° C | 86% | 994.5 hPa | 0 mm | - | - | - |
| 1778098093 | 5.56° C | 95% | 994.2 hPa | 0 mm | - | - | - |
| 1778094492 | 5.56° C | 94% | 994.2 hPa | 0 mm | - | - | - |
| 1778090891 | 6.67° C | 93% | 995 hPa | 0 mm | - | - | - |
| 1778087291 | 7.22° C | 91% | 994.9 hPa | 0 mm | - | - | - |
| 1778083690 | 7.78° C | 91% | 995.4 hPa | 0 mm | - | - | - |
| 1778080090 | 8.33° C | 88% | 995.7 hPa | 0 mm | - | - | - |
| 1778076489 | 8.89° C | 85% | 995.4 hPa | 0 mm | - | - | - |
| 1778072889 | 10.56° C | 80% | 995.4 hPa | 0 mm | - | - | - |
| 1778069288 | 11.67° C | 73% | 995.9 hPa | 0 mm | - | - | - |
| 1778065688 | 14.44° C | 66% | 996.2 hPa | 0 mm | - | - | - |
| 1778062087 | 16.67° C | 51% | 996 hPa | 0 mm | - | - | - |
| 1778058486 | 18.89° C | 41% | 995.9 hPa | 0 mm | - | - | - |
* Rain latest hour (hover to see other rain measurements)
** Current wind speed in m/s (hover to see current wind gust speed)